A17 weather

Bremer Bay Airport
Bremer Bay, Western Australia, Australia

Public forecast

Using degrees Celsius for public forecast. Weather courtesy of forecast.io.

Closest aviation weather report (METAR) to Bremer Bay Airport

Closest report is Albany Airport, 82.4 nm (152.7 km) WSW. Retrieved 2020/07/07 12:35 UTC (15 minutes ago):

YABA 071235Z AUTO 31006KT 9999 // SCT008 SCT018 BKN047 11/11 Q1018

Closest aviation forecast (TAF) to Bremer Bay Airport

Forecast is more than 6 hours old.

Closest forecast is Perth Jandakot Airport, 220.9 nm (409.2 km) NW. Retrieved 2020/07/07 06:00 UTC (7 hours ago):

TAF YPJT 070453Z 0706/0800 27010KT 9999 -SHRA SCT025 BKN035 FM071000 23006KT 9999 -SHRA SCT025 BKN035 BECMG 0718/0720 08005KT 9999 NSW SCT040 INTER 0713/0718 4000 SHRA BKN015 PROB30 0719/0800 0200 FG BKN002